createdAt,value
2023-01-19T00:02:14.493Z,552.43
2023-01-19T00:05:20.960Z,477.60
2023-01-19T00:08:27.532Z,436.43
2023-01-19T00:11:33.376Z,415.33
2023-01-19T00:14:40.076Z,386.95
2023-01-19T00:17:48.496Z,365.39
2023-01-19T00:20:55.108Z,370.77
2023-01-19T00:24:00.852Z,359.00
2023-01-19T00:27:07.702Z,348.62
2023-01-19T00:30:15.419Z,343.76
2023-01-19T00:33:26.118Z,347.70
2023-01-19T00:36:32.091Z,338.85
2023-01-19T00:39:38.930Z,385.97
2023-01-19T00:42:48.488Z,391.95
2023-01-19T00:45:55.246Z,385.18
2023-01-19T00:49:03.662Z,363.14
2023-01-19T00:52:10.994Z,373.54
2023-01-19T00:55:19.490Z,354.64
2023-01-19T00:58:26.183Z,350.69
2023-01-19T01:01:45.907Z,342.95
2023-01-19T01:04:56.901Z,326.77
2023-01-19T01:08:02.870Z,342.62
2023-01-19T01:11:09.480Z,340.07
2023-01-19T01:14:16.653Z,343.68
2023-01-19T01:17:25.125Z,331.55
2023-01-19T01:20:34.930Z,346.93
2023-01-19T01:23:41.595Z,350.52
2023-01-19T01:26:47.446Z,363.60
2023-01-19T01:29:54.200Z,367.56
2023-01-19T01:33:00.358Z,372.28
2023-01-19T01:36:12.061Z,387.97
2023-01-19T01:39:18.059Z,391.80
2023-01-19T01:42:32.774Z,410.21
2023-01-19T01:45:42.021Z,418.38
2023-01-19T01:48:57.444Z,421.62
2023-01-19T01:52:06.315Z,422.49
2023-01-19T01:55:16.802Z,413.07
2023-01-19T01:58:22.705Z,405.95
2023-01-19T02:01:41.846Z,389.29
2023-01-19T02:04:55.119Z,374.54
2023-01-19T02:08:24.324Z,360.72
2023-01-19T02:11:45.335Z,356.42
2023-01-19T02:14:52.016Z,359.00
2023-01-19T02:17:58.728Z,368.34
2023-01-19T02:21:19.055Z,393.86
2023-01-19T02:24:29.629Z,636.99
2023-01-19T02:27:37.984Z,548.35
2023-01-19T02:30:45.578Z,430.07
2023-01-19T02:33:53.048Z,456.16
2023-01-19T02:37:06.818Z,491.55
2023-01-19T02:40:24.619Z,493.31
2023-01-19T02:43:33.784Z,487.61
2023-01-19T02:46:42.233Z,476.59
2023-01-19T02:49:48.189Z,488.68
2023-01-19T02:53:11.069Z,484.20
2023-01-19T02:56:56.046Z,468.60
2023-01-19T03:00:24.838Z,475.15
2023-01-19T03:03:42.365Z,509.23
2023-01-19T03:06:58.274Z,520.71
2023-01-19T03:10:16.073Z,580.46
2023-01-19T03:13:39.319Z,527.05
2023-01-19T03:16:50.953Z,504.18
2023-01-19T03:19:57.668Z,464.29
2023-01-19T03:23:11.215Z,434.22
2023-01-19T03:26:24.993Z,437.85
2023-01-19T03:29:38.133Z,422.91
2023-01-19T03:32:53.861Z,445.42
2023-01-19T03:36:07.268Z,493.61
2023-01-19T03:39:22.083Z,532.01
2023-01-19T03:42:31.292Z,526.67
2023-01-19T03:45:43.471Z,517.88
2023-01-19T03:48:51.055Z,516.04
2023-01-19T03:51:59.660Z,518.01
2023-01-19T03:55:09.983Z,512.39
2023-01-19T03:58:17.469Z,506.11
2023-01-19T04:01:26.453Z,512.79
2023-01-19T04:04:34.136Z,505.53
2023-01-19T04:07:39.953Z,497.36
2023-01-19T04:10:46.610Z,470.41
2023-01-19T04:13:52.795Z,450.68
2023-01-19T04:17:02.212Z,436.46
2023-01-19T04:20:10.791Z,454.17
2023-01-19T04:23:17.355Z,454.33
2023-01-19T04:26:23.271Z,431.01
2023-01-19T04:29:29.990Z,403.24
2023-01-19T04:32:38.461Z,428.95
2023-01-19T04:35:45.182Z,529.51
2023-01-19T04:38:51.237Z,593.74
2023-01-19T04:41:57.837Z,589.99
2023-01-19T04:45:03.873Z,576.87
2023-01-19T04:48:13.064Z,575.83
2023-01-19T04:51:18.838Z,621.94
2023-01-19T04:54:25.934Z,630.22
2023-01-19T04:57:32.003Z,639.29
2023-01-19T05:00:39.612Z,719.43
2023-01-19T05:03:48.087Z,783.33
2023-01-19T05:06:54.917Z,782.86
2023-01-19T05:10:00.868Z,820.72
2023-01-19T05:13:08.174Z,881.74
2023-01-19T05:16:14.291Z,853.91
2023-01-19T05:19:23.831Z,825.61
2023-01-19T05:22:29.814Z,813.91
2023-01-19T05:25:36.523Z,726.41
2023-01-19T05:28:42.463Z,649.37
2023-01-19T05:31:49.266Z,656.43
2023-01-19T05:34:57.809Z,738.91
2023-01-19T05:38:04.456Z,753.87
2023-01-19T05:41:10.292Z,778.59
2023-01-19T05:44:17.122Z,776.57
2023-01-19T05:47:22.905Z,761.73
2023-01-19T05:50:32.280Z,735.20
2023-01-19T05:53:38.136Z,668.51
2023-01-19T05:56:45.743Z,705.41
2023-01-19T05:59:51.598Z,783.89
2023-01-19T06:02:58.458Z,658.88
2023-01-19T06:06:07.964Z,640.22
2023-01-19T06:09:14.531Z,637.25
2023-01-19T06:12:20.316Z,639.46
2023-01-19T06:15:26.855Z,627.55
2023-01-19T06:18:33.648Z,602.69
2023-01-19T06:21:43.125Z,602.72
2023-01-19T06:24:49.024Z,658.20
2023-01-19T06:27:56.153Z,637.75
2023-01-19T06:31:01.989Z,668.25
2023-01-19T06:34:08.635Z,694.42
2023-01-19T06:37:17.864Z,699.32
2023-01-19T06:40:24.429Z,697.63
2023-01-19T06:43:33.549Z,710.18
2023-01-19T06:46:40.207Z,716.63
2023-01-19T06:49:46.797Z,701.46
2023-01-19T06:52:56.959Z,693.92
2023-01-19T06:56:05.104Z,699.94
2023-01-19T06:59:12.779Z,679.82
2023-01-19T07:06:10.363Z,733.97
2023-01-19T07:09:34.608Z,738.07
2023-01-19T07:12:42.410Z,715.96
2023-01-19T07:15:50.272Z,706.60
2023-01-19T07:18:56.319Z,703.82
2023-01-19T07:22:03.368Z,725.65
2023-01-19T07:25:13.363Z,720.61
2023-01-19T07:28:21.337Z,723.81
2023-01-19T07:31:27.693Z,723.58
2023-01-19T07:34:41.805Z,713.32
2023-01-19T07:41:46.011Z,722.28
2023-01-19T07:44:54.353Z,703.05
2023-01-19T07:48:00.717Z,706.63
2023-01-19T07:51:13.067Z,705.28
2023-01-19T07:54:20.942Z,690.68
2023-01-19T07:57:34.394Z,698.33
2023-01-19T08:00:42.176Z,677.47
2023-01-19T08:03:51.861Z,655.23
2023-01-19T08:07:01.986Z,632.60
2023-01-19T08:10:11.016Z,629.17
2023-01-19T08:13:19.481Z,630.06
2023-01-19T08:16:26.044Z,582.29
2023-01-19T08:19:34.365Z,582.95
2023-01-19T08:22:41.084Z,583.79
2023-01-19T08:25:47.701Z,568.24
2023-01-19T08:28:57.945Z,579.83
2023-01-19T08:32:04.043Z,591.96
2023-01-19T08:35:12.069Z,567.16
2023-01-19T08:38:21.199Z,520.61
2023-01-19T08:41:28.072Z,519.30
2023-01-19T08:44:39.393Z,501.81
2023-01-19T08:47:48.145Z,481.21
2023-01-19T08:50:56.296Z,469.44
2023-01-19T08:54:02.919Z,475.56
2023-01-19T08:57:08.624Z,482.16
2023-01-19T09:00:19.796Z,493.42
2023-01-19T09:03:26.030Z,501.86
2023-01-19T09:06:32.931Z,488.88
2023-01-19T09:09:43.543Z,466.24
2023-01-19T09:12:50.568Z,445.28
2023-01-19T09:15:59.055Z,439.46
2023-01-19T09:19:08.708Z,434.65
2023-01-19T09:22:14.717Z,431.96
2023-01-19T09:25:21.350Z,431.79
2023-01-19T09:28:27.306Z,416.14
2023-01-19T09:31:36.651Z,410.66
2023-01-19T09:34:42.708Z,470.77
2023-01-19T09:37:50.309Z,384.46
2023-01-19T09:40:59.422Z,364.65
2023-01-19T09:44:06.715Z,344.63
2023-01-19T09:47:25.400Z,356.45
2023-01-19T09:50:46.719Z,354.24
2023-01-19T09:54:06.093Z,349.86
2023-01-19T09:57:15.009Z,382.26
2023-01-19T10:00:22.876Z,360.46
2023-01-19T10:03:33.649Z,349.62
2023-01-19T10:06:40.079Z,365.47
2023-01-19T10:10:10.191Z,353.31
2023-01-19T10:13:42.195Z,348.40
2023-01-19T10:17:05.632Z,362.59
2023-01-19T10:20:26.937Z,378.32
2023-01-19T10:23:49.056Z,591.21
2023-01-19T10:27:00.083Z,392.94
2023-01-19T10:30:18.102Z,371.70
2023-01-19T10:33:24.135Z,372.67
2023-01-19T10:36:41.133Z,378.94
2023-01-19T10:39:49.065Z,357.89
2023-01-19T10:42:56.848Z,360.11
2023-01-19T10:46:03.293Z,370.79
2023-01-19T10:49:25.957Z,391.74
2023-01-19T10:52:41.374Z,366.44
2023-01-19T10:55:48.045Z,363.64
2023-01-19T10:58:54.874Z,385.99
2023-01-19T11:02:22.510Z,399.04
2023-01-19T11:05:32.581Z,421.41
2023-01-19T11:08:41.806Z,416.30
2023-01-19T11:11:52.368Z,364.35
2023-01-19T11:15:00.197Z,392.27
2023-01-19T11:18:10.383Z,657.06
2023-01-19T11:21:20.446Z,391.03
2023-01-19T11:24:29.540Z,375.25
2023-01-19T11:27:40.184Z,351.89
2023-01-19T11:30:59.459Z,355.19
2023-01-19T11:34:24.998Z,366.52
2023-01-19T11:37:34.893Z,404.13
2023-01-19T11:40:55.028Z,429.23
2023-01-19T11:44:12.923Z,396.73
2023-01-19T11:47:29.497Z,631.93
2023-01-19T11:50:45.567Z,421.81
2023-01-19T11:53:56.149Z,784.17
2023-01-19T11:57:17.800Z,686.14
2023-01-19T12:00:37.804Z,570.63
2023-01-19T12:03:54.864Z,770.57
2023-01-19T12:07:10.814Z,936.94
2023-01-19T12:10:28.840Z,833.70
2023-01-19T12:13:40.368Z,1797.12
2023-01-19T12:16:48.866Z,1102.49
2023-01-19T12:20:06.641Z,875.17
2023-01-19T12:23:38.229Z,911.68
2023-01-19T12:26:56.375Z,815.51
2023-01-19T12:30:07.260Z,798.08
2023-01-19T12:33:36.221Z,705.99
2023-01-19T12:36:44.162Z,519.16
2023-01-19T12:39:52.526Z,670.04
2023-01-19T12:43:08.735Z,558.47
2023-01-19T12:46:34.832Z,590.77
2023-01-19T12:49:48.659Z,500.97
2023-01-19T12:53:02.773Z,493.42
2023-01-19T12:56:12.936Z,397.14
2023-01-19T12:59:30.663Z,437.39
2023-01-19T13:02:58.972Z,388.73
2023-01-19T13:06:05.664Z,387.90
2023-01-19T13:09:33.498Z,296.73
2023-01-19T13:12:40.171Z,297.36
2023-01-19T13:15:47.334Z,307.02
2023-01-19T13:19:01.805Z,308.17
2023-01-19T13:22:53.130Z,309.32
2023-01-19T13:26:09.174Z,307.88
2023-01-19T13:29:25.969Z,872.64
2023-01-19T13:32:33.154Z,913.75
2023-01-19T13:35:41.909Z,505.09
2023-01-19T13:38:50.530Z,391.50
2023-01-19T13:42:03.012Z,396.81
2023-01-19T13:45:30.652Z,414.91
2023-01-19T13:48:37.270Z,370.19
2023-01-19T13:51:47.912Z,1163.39
2023-01-19T13:55:02.357Z,881.79
2023-01-19T13:58:26.205Z,1484.87
2023-01-19T14:01:33.170Z,1224.54
2023-01-19T14:04:40.136Z,1501.59
2023-01-19T14:07:48.637Z,882.29
2023-01-19T14:11:07.093Z,792.84
2023-01-19T14:14:27.574Z,959.94
2023-01-19T14:17:35.789Z,3001.20
2023-01-19T14:20:42.725Z,1188.41
2023-01-19T14:23:57.132Z,2730.24
2023-01-19T14:27:26.221Z,3023.47
2023-01-19T14:30:35.278Z,1020.75
2023-01-19T14:33:47.262Z,614.72
2023-01-19T14:36:55.520Z,1325.60
2023-01-19T14:40:20.367Z,985.06
2023-01-19T14:43:28.744Z,595.94
2023-01-19T14:46:34.841Z,1827.23
2023-01-19T14:49:50.259Z,957.47
2023-01-19T14:53:03.676Z,413.27
2023-01-19T14:56:13.587Z,882.18
2023-01-19T14:59:19.419Z,1368.09
2023-01-19T15:02:26.181Z,617.94
2023-01-19T15:05:32.313Z,618.45
2023-01-19T15:08:39.209Z,496.06
2023-01-19T15:11:52.594Z,426.07
2023-01-19T15:15:00.150Z,426.39
2023-01-19T15:18:10.032Z,673.66
2023-01-19T15:21:20.214Z,402.82
2023-01-19T15:24:27.969Z,351.35
2023-01-19T15:27:37.118Z,383.97
2023-01-19T15:30:43.380Z,534.57
2023-01-19T15:33:50.945Z,819.09
2023-01-19T15:36:56.859Z,778.46
2023-01-19T15:40:03.554Z,978.77
2023-01-19T15:43:13.703Z,1317.89
2023-01-19T15:46:23.837Z,978.61
2023-01-19T15:49:31.072Z,823.09
2023-01-19T15:52:37.565Z,1185.98
2023-01-19T15:55:46.148Z,1067.92
2023-01-19T15:58:56.374Z,855.76
2023-01-19T16:02:02.885Z,2834.42
2023-01-19T16:05:11.159Z,1764.21
2023-01-19T16:08:17.702Z,1614.20
2023-01-19T16:11:24.291Z,1156.29
2023-01-19T16:14:32.915Z,774.16
2023-01-19T16:17:40.025Z,944.20
2023-01-19T16:20:45.955Z,774.74
2023-01-19T16:23:52.785Z,710.31
2023-01-19T16:26:58.651Z,612.97
2023-01-19T16:30:10.049Z,506.34
2023-01-19T16:33:16.397Z,546.48
2023-01-19T16:36:27.020Z,559.08
2023-01-19T16:39:32.896Z,492.88
2023-01-19T16:42:40.908Z,409.93
2023-01-19T16:46:04.677Z,382.92
2023-01-19T16:49:17.863Z,372.90
2023-01-19T16:52:23.846Z,351.67
2023-01-19T16:55:30.419Z,354.09
2023-01-19T16:58:37.632Z,343.80
2023-01-19T17:01:50.595Z,337.64
2023-01-19T17:04:56.678Z,358.70
2023-01-19T17:08:03.502Z,357.89
2023-01-19T17:11:19.578Z,377.05
2023-01-19T17:14:26.163Z,391.05
2023-01-19T17:17:35.342Z,427.12
2023-01-19T17:20:43.459Z,435.84
2023-01-19T17:23:53.654Z,433.95
2023-01-19T17:27:00.444Z,595.58
2023-01-19T17:30:06.424Z,535.70
2023-01-19T17:33:15.909Z,589.48
2023-01-19T17:36:25.566Z,509.68
2023-01-19T17:39:32.458Z,479.38
2023-01-19T17:42:43.771Z,547.67
2023-01-19T17:45:50.367Z,653.08
2023-01-19T17:49:01.723Z,657.37
2023-01-19T17:52:08.829Z,587.36
2023-01-19T17:55:15.049Z,584.86
2023-01-19T17:58:23.734Z,587.27
2023-01-19T18:01:32.647Z,508.16
2023-01-19T18:04:43.534Z,478.12
2023-01-19T18:07:50.191Z,483.54
2023-01-19T18:11:14.279Z,456.21
2023-01-19T18:14:20.234Z,444.39
2023-01-19T18:17:26.791Z,531.25
2023-01-19T18:20:37.852Z,452.89
2023-01-19T18:23:46.002Z,400.88
2023-01-19T18:26:53.218Z,425.55
2023-01-19T18:30:01.549Z,468.57
2023-01-19T18:33:07.731Z,540.47
2023-01-19T18:36:18.318Z,593.62
2023-01-19T18:39:24.238Z,580.10
2023-01-19T18:42:30.942Z,728.17
2023-01-19T18:45:38.289Z,523.61
2023-01-19T18:48:45.333Z,468.89
2023-01-19T18:51:53.850Z,699.09
2023-01-19T18:55:00.568Z,713.01
2023-01-19T18:58:07.279Z,664.23
2023-01-19T19:01:32.264Z,686.70
2023-01-19T19:04:38.729Z,485.84
2023-01-19T19:07:48.313Z,506.59
2023-01-19T19:10:54.411Z,519.39
2023-01-19T19:14:04.825Z,578.85
2023-01-19T19:17:11.007Z,634.73
2023-01-19T19:20:18.130Z,464.27
2023-01-19T19:23:26.769Z,447.76
2023-01-19T19:26:33.326Z,519.27
2023-01-19T19:29:39.213Z,531.60
2023-01-19T19:32:45.731Z,572.94
2023-01-19T19:35:51.670Z,649.74
2023-01-19T19:39:02.795Z,543.34
2023-01-19T19:42:08.762Z,564.49
2023-01-19T19:45:16.130Z,513.94
2023-01-19T19:48:23.136Z,559.82
2023-01-19T19:51:31.282Z,829.48
2023-01-19T19:54:42.092Z,677.38
2023-01-19T19:57:48.915Z,935.37
2023-01-19T20:00:55.236Z,758.91
2023-01-19T20:04:10.971Z,656.31
2023-01-19T20:07:18.032Z,932.90
2023-01-19T20:10:30.145Z,896.63
2023-01-19T20:13:37.316Z,834.77
2023-01-19T20:16:43.972Z,711.42
2023-01-19T20:19:49.999Z,768.68
2023-01-19T20:22:56.673Z,697.17
2023-01-19T20:26:08.111Z,780.71
2023-01-19T20:29:15.212Z,914.47
2023-01-19T20:32:23.036Z,759.64
2023-01-19T20:35:29.874Z,702.18
2023-01-19T20:38:36.260Z,578.29
2023-01-19T20:41:46.315Z,496.66
2023-01-19T20:44:52.416Z,555.19
2023-01-19T20:47:59.115Z,506.80
2023-01-19T20:51:08.579Z,450.35
2023-01-19T20:54:17.850Z,481.59
2023-01-19T20:57:26.664Z,429.70
2023-01-19T21:00:33.429Z,413.65
2023-01-19T21:03:39.393Z,458.80
2023-01-19T21:06:48.052Z,490.75
2023-01-19T21:09:53.858Z,415.75
2023-01-19T21:13:03.031Z,418.94
2023-01-19T21:16:11.032Z,435.54
2023-01-19T21:19:18.101Z,412.92
2023-01-19T21:22:26.329Z,435.36
2023-01-19T21:25:37.477Z,441.38
2023-01-19T21:28:46.440Z,457.45
2023-01-19T21:31:57.552Z,561.92
2023-01-19T21:35:03.630Z,528.67
2023-01-19T21:38:10.784Z,453.88
2023-01-19T21:41:17.364Z,410.74
2023-01-19T21:44:26.818Z,444.82
2023-01-19T21:47:32.684Z,470.41
2023-01-19T21:50:39.861Z,483.78
2023-01-19T21:53:47.363Z,472.81
2023-01-19T21:56:54.197Z,477.83
2023-01-19T22:00:02.684Z,435.88
2023-01-19T22:03:14.721Z,442.39
2023-01-19T22:06:20.697Z,478.59
2023-01-19T22:09:27.345Z,442.33
2023-01-19T22:12:33.255Z,447.77
2023-01-19T22:15:42.551Z,449.04
2023-01-19T22:18:54.215Z,533.18
2023-01-19T22:22:02.351Z,493.65
2023-01-19T22:25:09.482Z,520.78
2023-01-19T22:28:16.216Z,556.49
2023-01-19T22:31:26.305Z,435.98
2023-01-19T22:34:32.986Z,430.74
2023-01-19T22:37:40.155Z,455.94
2023-01-19T22:40:46.720Z,442.40
2023-01-19T22:43:56.680Z,417.94
2023-01-19T22:47:05.853Z,400.78
2023-01-19T22:50:13.511Z,429.81
2023-01-19T22:53:20.073Z,411.99
2023-01-19T22:56:28.944Z,420.39
2023-01-19T22:59:35.617Z,408.61
2023-01-19T23:02:44.053Z,401.75
2023-01-19T23:05:50.748Z,389.49
2023-01-19T23:09:00.491Z,393.65
2023-01-19T23:12:08.009Z,399.67
2023-01-19T23:15:14.909Z,405.43
2023-01-19T23:18:24.241Z,397.22
2023-01-19T23:21:33.558Z,392.58
2023-01-19T23:24:40.402Z,391.85
2023-01-19T23:27:46.247Z,400.82
2023-01-19T23:30:53.031Z,428.69
2023-01-19T23:34:05.034Z,475.06
2023-01-19T23:37:12.027Z,447.83
2023-01-19T23:40:18.314Z,435.98
2023-01-19T23:43:24.894Z,431.25
2023-01-19T23:46:31.396Z,446.76
2023-01-19T23:49:41.355Z,466.63
2023-01-19T23:52:47.310Z,453.44
2023-01-19T23:55:53.950Z,438.95
2023-01-19T23:59:02.792Z,450.41
